Map

Track Data

SID SEASON NUMBER BASIN SUBBASIN NAME ISO_TIME NATURE LAT LON WMO_WIND WMO_PRES WMO_AGENCY TRACK_TYPE DIST2LAND LANDFALL IFLAG USA_AGENCY USA_ATCF_ID USA_LAT USA_LON USA_RECORD USA_STATUS USA_WIND USA_PRES USA_SSHS USA_R34_NE USA_R34_SE USA_R34_SW USA_R34_NW USA_R50_NE USA_R50_SE USA_R50_SW USA_R50_NW USA_R64_NE USA_R64_SE USA_R64_SW USA_R64_NW USA_POCI USA_ROCI USA_RMW USA_EYE TOKYO_LAT TOKYO_LON TOKYO_GRADE TOKYO_WIND TOKYO_PRES TOKYO_R50_DIR TOKYO_R50_LONG TOKYO_R50_SHORT TOKYO_R30_DIR TOKYO_R30_LONG TOKYO_R30_SHORT TOKYO_LAND CMA_LAT CMA_LON CMA_CAT CMA_WIND CMA_PRES HKO_LAT HKO_LON HKO_CAT HKO_WIND HKO_PRES NEWDELHI_LAT NEWDELHI_LON NEWDELHI_GRADE NEWDELHI_WIND NEWDELHI_PRES NEWDELHI_CI NEWDELHI_DP NEWDELHI_POCI REUNION_LAT REUNION_LON REUNION_TYPE REUNION_WIND REUNION_PRES REUNION_TNUM REUNION_CI REUNION_RMW REUNION_R34_NE REUNION_R34_SE REUNION_R34_SW REUNION_R34_NW REUNION_R50_NE REUNION_R50_SE REUNION_R50_SW REUNION_R50_NW REUNION_R64_NE REUNION_R64_SE REUNION_R64_SW REUNION_R64_NW BOM_LAT BOM_LON BOM_TYPE BOM_WIND BOM_PRES BOM_TNUM BOM_CI BOM_RMW BOM_R34_NE BOM_R34_SE BOM_R34_SW BOM_R34_NW BOM_R50_NE BOM_R50_SE BOM_R50_SW BOM_R50_NW BOM_R64_NE BOM_R64_SE BOM_R64_SW BOM_R64_NW BOM_ROCI BOM_POCI BOM_EYE BOM_POS_METHOD BOM_PRES_METHOD NADI_LAT NADI_LON NADI_CAT NADI_WIND NADI_PRES WELLINGTON_LAT WELLINGTON_LON WELLINGTON_WIND WELLINGTON_PRES DS824_LAT DS824_LON DS824_STAGE DS824_WIND DS824_PRES TD9636_LAT TD9636_LON TD9636_STAGE TD9636_WIND TD9636_PRES TD9635_LAT TD9635_LON TD9635_WIND TD9635_PRES TD9635_ROCI NEUMANN_LAT NEUMANN_LON NEUMANN_CLASS NEUMANN_WIND NEUMANN_PRES MLC_LAT MLC_LON MLC_CLASS MLC_WIND MLC_PRES USA_GUST BOM_GUST BOM_GUST_PER REUNION_GUST REUNION_GUST_PER USA_SEAHGT USA_SEARAD_NE USA_SEARAD_SE USA_SEARAD_SW USA_SEARAD_NW STORM_SPEED STORM_DIR
1910301N09137 1910 49 WP MM NOT_NAMED 1910-10-27 16:00:00 NR 9.00000 137.000 main 1097 1095 __________O___ -1 9.00000 137.000 7 5 281
1910301N09137 1910 49 WP MM NOT_NAMED 1910-10-27 18:00:00 NR 9.03344 136.819 main 1095 1093 __________P___ -1 9.03344 136.819 7 5 281
1910301N09137 1910 49 WP MM NOT_NAMED 1910-10-27 21:00:00 NR 9.08347 136.546 main 1101 1079 __________P___ -1 9.08347 136.546 7 6 280
1910301N09137 1910 49 WP MM NOT_NAMED 1910-10-28 00:00:00 NR 9.13342 136.272 main 1079 1048 __________P___ -1 9.13342 136.272 7 6 280
1910301N09137 1910 49 WP MM NOT_NAMED 1910-10-28 03:00:00 NR 9.18335 135.994 main 1048 1037 __________P___ -1 9.18335 135.994 7 6 280
1910301N09137 1910 49 WP MM NOT_NAMED 1910-10-28 04:00:00 NR 9.20000 135.900 main 1037 1015 __________O___ -1 9.20000 135.900 7 6 280
1910301N09137 1910 49 WP MM NOT_NAMED 1910-10-28 06:00:00 NR 9.23331 135.711 main 1015 985 __________P___ -1 9.23331 135.711 7 6 280
1910301N09137 1910 49 WP MM NOT_NAMED 1910-10-28 09:00:00 NR 9.28331 135.428 main 985 963 __________P___ -1 9.28331 135.428 7 6 280
1910301N09137 1910 49 WP MM NOT_NAMED 1910-10-28 12:00:00 NR 9.33332 135.151 main 963 933 __________P___ -1 9.33332 135.151 7 5 281
1910301N09137 1910 49 WP MM NOT_NAMED 1910-10-28 15:00:00 NR 9.38333 134.885 main 933 922 __________P___ -1 9.38333 134.885 7 5 281
1910301N09137 1910 49 WP MM NOT_NAMED 1910-10-28 16:00:00 NR 9.40000 134.800 main 922 900 __________O___ -1 9.40000 134.800 7 5 281
1910301N09137 1910 49 WP MM NOT_NAMED 1910-10-28 18:00:00 NR 9.42796 134.649 main 900 881 __________P___ -1 9.42796 134.649 7 4 281
1910301N09137 1910 49 WP MM NOT_NAMED 1910-10-28 21:00:00 NR 9.46986 134.435 main 881 860 __________P___ -1 9.46986 134.435 7 4 282
1910301N09137 1910 49 WP MM NOT_NAMED 1910-10-29 00:00:00 NR 9.51730 134.221 main 860 841 __________P___ -1 9.51730 134.221 7 5 284
1910301N09137 1910 49 WP MM NOT_NAMED 1910-10-29 03:00:00 NR 9.57655 133.986 main 841 830 __________P___ -1 9.57655 133.986 7 5 285
1910301N09137 1910 49 WP MM NOT_NAMED 1910-10-29 04:00:00 NR 9.60000 133.900 main 830 809 __________O___ -1 9.60000 133.900 7 6 286
1910301N09137 1910 49 WP MM NOT_NAMED 1910-10-29 06:00:00 NR 9.65525 133.709 main 812 780 __________P___ -1 9.65525 133.709 7 6 287
1910301N09137 1910 49 WP MM NOT_NAMED 1910-10-29 09:00:00 NR 9.75072 133.397 main 784 752 __________P___ -1 9.75072 133.397 7 7 287
1910301N09137 1910 49 WP MM NOT_NAMED 1910-10-29 12:00:00 NR 9.85578 133.063 main 756 715 __________P___ -1 9.85578 133.063 7 7 288
1910301N09137 1910 49 WP MM NOT_NAMED 1910-10-29 15:00:00 NR 9.96419 132.717 main 715 704 __________P___ -1 9.96419 132.717 7 7 288
1910301N09137 1910 49 WP MM NOT_NAMED 1910-10-29 16:00:00 NR 10.0000 132.600 main 704 685 __________O___ -1 10.0000 132.600 7 7 288
1910301N09137 1910 49 WP MM NOT_NAMED 1910-10-29 18:00:00 NR 10.0664 132.398 main 685 653 __________P___ -1 10.0664 132.398 7 6 288
1910301N09137 1910 49 WP MM NOT_NAMED 1910-10-29 21:00:00 NR 10.1660 132.091 main 655 623 __________P___ -1 10.1660 132.091 7 7 287
1910301N09137 1910 49 WP MM NOT_NAMED 1910-10-30 00:00:00 NR 10.2660 131.751 main 626 583 __________P___ -1 10.2660 131.751 7 8 285
1910301N09137 1910 49 WP MM NOT_NAMED 1910-10-30 03:00:00 NR 10.3664 131.351 main 585 564 __________P___ -1 10.3664 131.351 7 8 284
1910301N09137 1910 49 WP MM NOT_NAMED 1910-10-30 04:00:00 NR 10.4000 131.200 main 564 524 __________O___ -1 10.4000 131.200 7 10 282
1910301N09137 1910 49 WP MM NOT_NAMED 1910-10-30 06:00:00 NR 10.4776 130.836 main 524 465 __________P___ -1 10.4776 130.836 7 12 281
1910301N09137 1910 49 WP MM NOT_NAMED 1910-10-30 09:00:00 NR 10.5940 130.227 main 465 408 __________P___ -1 10.5940 130.227 7 12 280
1910301N09137 1910 49 WP MM NOT_NAMED 1910-10-30 12:00:00 NR 10.6990 129.591 main 408 350 __________P___ -1 10.6990 129.591 7 12 279
1910301N09137 1910 49 WP MM NOT_NAMED 1910-10-30 15:00:00 NR 10.7803 128.986 main 350 328 __________P___ -1 10.7803 128.986 7 12 277
1910301N09137 1910 49 WP MM NOT_NAMED 1910-10-30 16:00:00 NR 10.8000 128.800 main 328 295 __________O___ -1 10.8000 128.800 3 10 275
1910301N09137 1910 49 WP MM NOT_NAMED 1910-10-30 18:00:00 NR 10.8222 128.503 main 295 252 __________P___ -1 10.8222 128.503 3 8 273
1910301N09137 1910 49 WP MM NOT_NAMED 1910-10-30 21:00:00 NR 10.8308 128.109 main 252 208 __________P___ -1 10.8308 128.109 3 8 270
1910301N09137 1910 49 WP MM NOT_NAMED 1910-10-31 00:00:00 NR 10.8207 127.737 main 208 165 __________P___ -1 10.8207 127.737 3 8 268
1910301N09137 1910 49 WP MM NOT_NAMED 1910-10-31 03:00:00 NR 10.8046 127.344 main 165 154 __________P___ -1 10.8046 127.344 3 8 268
1910301N09137 1910 49 WP MM NOT_NAMED 1910-10-31 04:00:00 NR 10.8000 127.200 main 154 122 __________O___ -1 10.8000 127.200 4 9 269
1910301N09137 1910 49 WP MM NOT_NAMED 1910-10-31 06:00:00 NR 10.7974 126.868 main 122 59 __________P___ -1 10.7974 126.868 4 10 270
1910301N09137 1910 49 WP MM NOT_NAMED 1910-10-31 09:00:00 NR 10.7934 126.331 main 59 22 __________P___ -1 10.7934 126.331 4 11 270
1910301N09137 1910 49 WP MM NOT_NAMED 1910-10-31 12:00:00 NR 10.7921 125.766 main 22 21 __________P___ -1 10.7921 125.766 4 11 270
1910301N09137 1910 49 WP MM NOT_NAMED 1910-10-31 15:00:00 NR 10.7966 125.191 main 21 0 __________P___ -1 10.7966 125.191 4 11 271
1910301N09137 1910 49 WP MM NOT_NAMED 1910-10-31 16:00:00 NR 10.8000 125.000 main 0 0 __________O___ -1 10.8000 125.000 4 10 270
1910301N09137 1910 49 WP MM NOT_NAMED 1910-10-31 18:00:00 NR 10.7999 124.659 main 10 10 __________P___ -1 10.7999 124.659 4 10 270
1910301N09137 1910 49 WP MM NOT_NAMED 1910-10-31 21:00:00 NR 10.8060 124.149 main 10 0 __________P___ -1 10.8060 124.149 4 10 272
1910301N09137 1910 49 WP MM NOT_NAMED 1910-11-01 00:00:00 NR 10.8284 123.612 main 0 0 __________P___ -1 10.8284 123.612 4 11 274
1910301N09137 1910 49 WP MM NOT_NAMED 1910-11-01 03:00:00 NR 10.8766 123.017 main 0 0 __________P___ -1 10.8766 123.017 4 12 275
1910301N09137 1910 49 WP MM NOT_NAMED 1910-11-01 04:00:00 NR 10.9000 122.800 main 0 0 __________O___ -1 10.9000 122.800 4 14 277
1910301N09137 1910 49 WP MM NOT_NAMED 1910-11-01 06:00:00 NR 10.9660 122.319 main 0 0 __________P___ -1 10.9660 122.319 4 15 279
1910301N09137 1910 49 WP MM NOT_NAMED 1910-11-01 09:00:00 NR 11.0902 121.534 main 55 55 __________P___ -1 11.0902 121.534 4 16 279
1910301N09137 1910 49 WP MM NOT_NAMED 1910-11-01 12:00:00 NR 11.2277 120.705 main 120 34 __________P___ -1 11.2277 120.705 4 17 279
1910301N09137 1910 49 WP MM NOT_NAMED 1910-11-01 15:00:00 NR 11.3602 119.872 main 34 11 __________P___ -1 11.3602 119.872 4 16 279
1910301N09137 1910 49 WP MM NOT_NAMED 1910-11-01 16:00:00 NR 11.4000 119.600 main 11 11 __________O___ -1 11.4000 119.600 4 16 277
1910301N09137 1910 49 WP MM NOT_NAMED 1910-11-01 18:00:00 NR 11.4556 119.088 main 46 55 __________P___ -1 11.4556 119.088 4 15 276
1910301N09137 1910 49 WP MM NOT_NAMED 1910-11-01 21:00:00 NR 11.5267 118.333 main 124 124 __________P___ -1 11.5267 118.333 4 15 275
1910301N09137 1910 49 WP MM NOT_NAMED 1910-11-02 00:00:00 NR 11.5942 117.589 main 201 211 __________P___ -1 11.5942 117.589 4 15 276
1910301N09137 1910 49 WP MM NOT_NAMED 1910-11-02 03:00:00 NR 11.6705 116.847 main 282 282 __________P___ -1 11.6705 116.847 4 15 276
1910301N09137 1910 49 WP MM NOT_NAMED 1910-11-02 04:00:00 NR 11.7000 116.600 main 299 299 __________O___ -1 11.7000 116.600 4 15 277
1910301N09137 1910 49 WP MM NOT_NAMED 1910-11-02 06:00:00 NR 11.7638 116.089 main 345 351 __________P___ -1 11.7638 116.089 4 15 278
1910301N09137 1910 49 WP MM NOT_NAMED 1910-11-02 09:00:00 NR 11.8722 115.323 main 407 407 __________P___ -1 11.8722 115.323 4 15 279
1910301N09137 1910 49 WP MM NOT_NAMED 1910-11-02 12:00:00 NR 11.9985 114.568 main 469 470 __________P___ -1 11.9985 114.568 4 15 281
1910301N09137 1910 49 WP MM NOT_NAMED 1910-11-02 15:00:00 NR 12.1457 113.836 main 470 447 __________P___ -1 12.1457 113.836 4 15 282
1910301N09137 1910 49 WP MM NOT_NAMED 1910-11-02 16:00:00 NR 12.2000 113.600 main 447 392 __________O___ -1 12.2000 113.600 4 14 284
1910301N09137 1910 49 WP MM NOT_NAMED 1910-11-02 18:00:00 NR 12.3166 113.140 main 392 326 __________P___ -1 12.3166 113.140 4 14 286
1910301N09137 1910 49 WP MM NOT_NAMED 1910-11-02 21:00:00 NR 12.5084 112.476 main 326 249 __________P___ -1 12.5084 112.476 4 13 287
1910301N09137 1910 49 WP MM NOT_NAMED 1910-11-03 00:00:00 NR 12.7145 111.836 main 249 184 __________P___ -1 12.7145 111.836 4 13 289
1910301N09137 1910 49 WP MM NOT_NAMED 1910-11-03 03:00:00 NR 12.9282 111.208 main 184 163 __________P___ -1 12.9282 111.208 4 13 289
1910301N09137 1910 49 WP MM NOT_NAMED 1910-11-03 04:00:00 NR 13.0000 111.000 main 163 __________O___ -1 13.0000 111.000 4 13 290

Digital Typhoon Data and Search

About IBTrACS Database

This database is a web-friendly format of International Best Track Archive for Climate Stewardship (IBTrACS), a global best track data archive curated by NOAA dating back to 1842.

Updated: 2021-12-03